createdAt,value
2022-11-22T00:00:38.286Z,100.00
2022-11-22T00:03:05.535Z,100.00
2022-11-22T00:05:33.097Z,100.00
2022-11-22T00:08:00.228Z,100.00
2022-11-22T00:10:27.415Z,100.00
2022-11-22T00:12:54.608Z,100.00
2022-11-22T00:15:21.816Z,100.00
2022-11-22T00:17:50.953Z,100.00
2022-11-22T00:20:17.973Z,100.00
2022-11-22T00:22:45.461Z,100.00
2022-11-22T00:25:12.745Z,100.00
2022-11-22T00:27:41.403Z,100.00
2022-11-22T00:30:08.567Z,100.00
2022-11-22T00:32:37.179Z,100.00
2022-11-22T00:35:04.319Z,100.00
2022-11-22T00:37:31.424Z,100.00
2022-11-22T00:40:00.021Z,100.00
2022-11-22T00:42:27.447Z,100.00
2022-11-22T00:44:54.558Z,100.00
2022-11-22T00:47:21.905Z,100.00
2022-11-22T00:49:49.902Z,100.00
2022-11-22T00:52:16.999Z,100.00
2022-11-22T00:54:50.048Z,100.00
2022-11-22T00:57:20.330Z,100.00
2022-11-22T00:59:47.438Z,100.00
2022-11-22T01:02:14.674Z,100.00
2022-11-22T01:04:41.813Z,100.00
2022-11-22T01:07:09.463Z,100.00
2022-11-22T01:09:36.519Z,100.00
2022-11-22T01:12:03.719Z,100.00
2022-11-22T01:14:30.869Z,100.00
2022-11-22T01:16:57.932Z,100.00
2022-11-22T01:19:25.140Z,100.00
2022-11-22T01:21:52.221Z,100.00
2022-11-22T01:24:19.234Z,100.00
2022-11-22T01:26:46.311Z,100.00
2022-11-22T01:29:13.355Z,100.00
2022-11-22T01:31:41.217Z,100.00
2022-11-22T01:34:08.966Z,100.00
2022-11-22T01:36:36.175Z,100.00
2022-11-22T01:39:03.262Z,100.00
2022-11-22T01:41:30.302Z,100.00
2022-11-22T01:43:57.341Z,100.00
2022-11-22T01:46:36.260Z,100.00
2022-11-22T01:49:04.699Z,100.00
2022-11-22T01:51:37.588Z,100.00
2022-11-22T01:54:06.648Z,100.00
2022-11-22T01:56:34.418Z,100.00
2022-11-22T01:59:02.761Z,100.00
2022-11-22T02:01:29.904Z,100.00
2022-11-22T02:03:57.103Z,100.00
2022-11-22T02:06:24.181Z,100.00
2022-11-22T02:08:51.445Z,100.00
2022-11-22T02:11:18.789Z,100.00
2022-11-22T02:13:46.544Z,100.00
2022-11-22T02:16:16.528Z,100.00
2022-11-22T02:18:43.850Z,100.00
2022-11-22T02:21:10.853Z,100.00
2022-11-22T02:23:46.379Z,100.00
2022-11-22T02:26:13.433Z,100.00
2022-11-22T02:28:42.197Z,100.00
2022-11-22T02:31:09.333Z,100.00
2022-11-22T02:33:36.858Z,100.00
2022-11-22T02:36:04.002Z,100.00
2022-11-22T02:38:32.728Z,100.00
2022-11-22T02:41:03.746Z,100.00
2022-11-22T02:43:41.632Z,100.00
2022-11-22T02:46:09.608Z,100.00
2022-11-22T02:48:43.230Z,100.00
2022-11-22T02:51:10.433Z,100.00
2022-11-22T02:53:37.712Z,100.00
2022-11-22T02:56:04.855Z,100.00
2022-11-22T02:58:32.308Z,100.00
2022-11-22T03:00:59.391Z,100.00
2022-11-22T03:03:26.782Z,100.00
2022-11-22T03:05:53.846Z,100.00
2022-11-22T03:08:20.917Z,100.00
2022-11-22T03:10:47.920Z,100.00
2022-11-22T03:13:15.360Z,100.00
2022-11-22T03:15:42.430Z,100.00
2022-11-22T03:18:09.509Z,100.00
2022-11-22T03:20:36.595Z,100.00
2022-11-22T03:23:05.382Z,100.00
2022-11-22T03:25:32.497Z,100.00
2022-11-22T03:27:59.539Z,100.00
2022-11-22T03:30:26.658Z,100.00
2022-11-22T03:32:54.524Z,100.00
2022-11-22T03:35:21.822Z,100.00
2022-11-22T03:37:48.888Z,100.00
2022-11-22T03:40:15.884Z,100.00
2022-11-22T03:42:42.927Z,100.00
2022-11-22T03:45:10.568Z,100.00
2022-11-22T03:47:38.922Z,100.00
2022-11-22T03:50:06.254Z,100.00
2022-11-22T03:52:33.298Z,100.00
2022-11-22T03:55:00.410Z,100.00
2022-11-22T03:57:27.405Z,100.00
2022-11-22T03:59:54.657Z,100.00
2022-11-22T04:02:21.683Z,100.00
2022-11-22T04:04:48.972Z,100.00
2022-11-22T04:07:16.171Z,100.00
2022-11-22T04:09:43.818Z,100.00
2022-11-22T04:12:10.844Z,100.00
2022-11-22T04:14:56.678Z,100.00
2022-11-22T04:17:44.835Z,100.00
2022-11-22T04:20:41.052Z,100.00
2022-11-22T04:23:09.171Z,100.00
2022-11-22T04:25:42.153Z,100.00
2022-11-22T04:28:09.674Z,100.00
2022-11-22T04:30:55.615Z,100.00
2022-11-22T04:33:22.877Z,100.00
2022-11-22T04:35:49.872Z,100.00
2022-11-22T04:38:16.906Z,100.00
2022-11-22T04:40:43.975Z,100.00
2022-11-22T04:43:39.824Z,100.00
2022-11-22T04:46:06.887Z,100.00
2022-11-22T04:48:34.549Z,100.00
2022-11-22T04:51:20.334Z,100.00
2022-11-22T04:53:47.469Z,100.00
2022-11-22T04:56:14.496Z,100.00
2022-11-22T04:58:41.904Z,100.00
2022-11-22T05:01:09.423Z,100.00
2022-11-22T05:03:36.689Z,100.00
2022-11-22T05:06:05.429Z,100.00
2022-11-22T05:08:33.561Z,100.00
2022-11-22T05:11:02.383Z,100.00
2022-11-22T05:13:43.618Z,100.00
2022-11-22T05:16:11.421Z,100.00
2022-11-22T05:18:38.475Z,100.00
2022-11-22T05:21:09.401Z,100.00
2022-11-22T05:23:54.683Z,100.00
2022-11-22T05:26:28.860Z,100.00
2022-11-22T05:28:58.032Z,100.00
2022-11-22T05:31:27.177Z,100.00
2022-11-22T05:33:54.970Z,100.00
2022-11-22T05:36:22.294Z,100.00
2022-11-22T05:38:49.560Z,100.00
2022-11-22T05:41:17.038Z,100.00
2022-11-22T05:43:44.132Z,100.00
2022-11-22T05:46:12.047Z,100.00
2022-11-22T05:48:40.126Z,100.00
2022-11-22T05:51:07.681Z,100.00
2022-11-22T05:53:35.643Z,100.00
2022-11-22T05:56:06.474Z,100.00
2022-11-22T05:58:33.673Z,100.00
2022-11-22T06:01:07.722Z,100.00
2022-11-22T06:03:35.418Z,100.00
2022-11-22T06:06:02.888Z,100.00
2022-11-22T06:08:30.513Z,100.00
2022-11-22T06:11:04.937Z,100.00
2022-11-22T06:13:36.326Z,100.00
2022-11-22T06:16:06.199Z,100.00
2022-11-22T06:18:34.005Z,100.00
2022-11-22T06:21:01.962Z,100.00
2022-11-22T06:23:29.426Z,100.00
2022-11-22T06:26:00.282Z,100.00
2022-11-22T06:28:31.022Z,100.00
2022-11-22T06:31:26.293Z,100.00
2022-11-22T06:33:53.686Z,100.00
2022-11-22T06:36:23.569Z,100.00
2022-11-22T06:38:51.034Z,100.00
2022-11-22T06:41:19.347Z,100.00
2022-11-22T06:43:49.405Z,100.00
2022-11-22T06:46:23.181Z,100.00
2022-11-22T06:48:51.044Z,100.00
2022-11-22T06:51:18.543Z,100.00
2022-11-22T06:53:48.255Z,100.00
2022-11-22T06:56:16.779Z,100.00
2022-11-22T06:58:43.989Z,100.00
2022-11-22T07:01:11.867Z,100.00
2022-11-22T07:03:39.415Z,100.00
2022-11-22T07:06:07.206Z,100.00
2022-11-22T07:08:34.438Z,100.00
2022-11-22T07:11:14.628Z,100.00
2022-11-22T07:13:41.654Z,100.00
2022-11-22T07:16:09.169Z,100.00
2022-11-22T07:18:37.529Z,100.00
2022-11-22T07:21:12.838Z,100.00
2022-11-22T07:23:41.871Z,100.00
2022-11-22T07:26:08.941Z,100.00
2022-11-22T07:28:37.092Z,100.00
2022-11-22T07:31:05.835Z,100.00
2022-11-22T07:33:33.641Z,100.00
2022-11-22T07:36:04.596Z,100.00
2022-11-22T07:38:33.435Z,100.00
2022-11-22T07:41:00.704Z,100.00
2022-11-22T07:43:27.871Z,100.00
2022-11-22T07:45:58.470Z,100.00
2022-11-22T07:48:25.666Z,100.00
2022-11-22T07:50:52.722Z,100.00
2022-11-22T07:53:20.422Z,100.00
2022-11-22T07:55:47.544Z,100.00
2022-11-22T07:58:14.695Z,100.00
2022-11-22T08:00:41.704Z,100.00
2022-11-22T08:03:09.081Z,99.74
2022-11-22T08:05:36.197Z,99.33
2022-11-22T08:08:03.183Z,99.25
2022-11-22T08:10:30.536Z,99.28
2022-11-22T08:13:00.639Z,99.45
2022-11-22T08:15:27.798Z,99.25
2022-11-22T08:17:57.497Z,99.68
2022-11-22T08:20:24.698Z,99.86
2022-11-22T08:22:51.996Z,100.00
2022-11-22T08:25:19.876Z,100.00
2022-11-22T08:27:46.894Z,100.00
2022-11-22T08:30:14.676Z,100.00
2022-11-22T08:32:41.753Z,100.00
2022-11-22T08:35:08.964Z,100.00
2022-11-22T08:37:36.289Z,100.00
2022-11-22T08:40:03.487Z,100.00
2022-11-22T08:42:30.682Z,100.00
2022-11-22T08:44:57.995Z,100.00
2022-11-22T08:47:25.291Z,100.00
2022-11-22T08:49:52.484Z,100.00
2022-11-22T08:52:19.735Z,99.96
2022-11-22T08:54:46.783Z,100.00
2022-11-22T08:57:14.182Z,100.00
2022-11-22T08:59:41.752Z,100.00
2022-11-22T09:02:10.117Z,100.00
2022-11-22T09:04:37.240Z,99.41
2022-11-22T09:09:51.279Z,99.12
2022-11-22T09:12:20.605Z,98.90
2022-11-22T09:14:47.679Z,99.10
2022-11-22T09:17:17.908Z,99.00
2022-11-22T09:19:46.020Z,98.14
2022-11-22T09:22:13.139Z,98.75
2022-11-22T09:24:41.604Z,98.38
2022-11-22T09:27:08.878Z,98.10
2022-11-22T09:29:36.765Z,97.57
2022-11-22T09:32:03.777Z,97.28
2022-11-22T09:34:30.793Z,97.33
2022-11-22T09:36:57.885Z,98.29
2022-11-22T09:39:25.193Z,98.76
2022-11-22T09:41:58.305Z,98.96
2022-11-22T09:44:34.287Z,98.70
2022-11-22T09:47:20.391Z,99.43
2022-11-22T09:50:07.740Z,99.63
2022-11-22T09:52:45.202Z,100.00
2022-11-22T09:55:24.515Z,99.77
2022-11-22T09:57:53.680Z,99.28
2022-11-22T10:00:21.697Z,99.72
2022-11-22T10:03:09.058Z,100.00
2022-11-22T10:05:48.888Z,100.00
2022-11-22T10:08:32.407Z,99.83
2022-11-22T10:10:59.431Z,100.00
2022-11-22T10:13:31.571Z,99.97
2022-11-22T10:16:14.956Z,100.00
2022-11-22T10:18:45.919Z,100.00
2022-11-22T10:21:13.388Z,100.00
2022-11-22T10:23:41.286Z,100.00
2022-11-22T10:26:14.737Z,100.00
2022-11-22T10:28:51.185Z,100.00
2022-11-22T10:31:20.510Z,100.00
2022-11-22T10:33:51.218Z,100.00
2022-11-22T10:36:30.044Z,100.00
2022-11-22T10:39:06.339Z,100.00
2022-11-22T10:41:52.324Z,100.00
2022-11-22T10:44:41.574Z,100.00
2022-11-22T10:47:08.650Z,100.00
2022-11-22T10:49:44.485Z,100.00
2022-11-22T10:52:17.393Z,100.00
2022-11-22T10:54:44.400Z,100.00
2022-11-22T10:57:18.395Z,100.00
2022-11-22T11:00:02.946Z,100.00
2022-11-22T11:02:49.232Z,100.00
2022-11-22T11:05:17.669Z,100.00
2022-11-22T11:07:47.448Z,100.00
2022-11-22T11:10:27.510Z,100.00
2022-11-22T11:12:58.435Z,100.00
2022-11-22T11:15:30.094Z,100.00
2022-11-22T11:18:03.408Z,99.27
2022-11-22T11:20:37.672Z,99.28
2022-11-22T11:23:14.702Z,99.09
2022-11-22T11:25:45.649Z,98.75
2022-11-22T11:28:18.767Z,99.42
2022-11-22T11:30:48.154Z,100.00
2022-11-22T11:33:20.714Z,99.85
2022-11-22T11:35:49.112Z,99.65
2022-11-22T11:38:37.828Z,99.99
2022-11-22T11:41:25.902Z,100.00
2022-11-22T11:43:55.921Z,100.00
2022-11-22T11:46:29.332Z,100.00
2022-11-22T11:49:10.934Z,100.00
2022-11-22T11:51:38.638Z,100.00
2022-11-22T11:54:15.932Z,100.00
2022-11-22T11:56:51.030Z,100.00
2022-11-22T11:59:19.800Z,100.00
2022-11-22T12:01:48.047Z,100.00
2022-11-22T12:04:18.844Z,100.00
2022-11-22T12:06:52.442Z,100.00
2022-11-22T12:09:27.874Z,100.00
2022-11-22T12:11:55.994Z,99.90
2022-11-22T12:14:24.047Z,100.00
2022-11-22T12:16:52.266Z,100.00
2022-11-22T12:19:30.985Z,100.00
2022-11-22T12:22:07.041Z,100.00
2022-11-22T12:24:56.984Z,100.00
2022-11-22T12:27:26.732Z,100.00
2022-11-22T12:29:54.062Z,100.00
2022-11-22T12:32:27.390Z,100.00
2022-11-22T12:34:56.945Z,100.00
2022-11-22T12:37:25.759Z,100.00
2022-11-22T12:39:53.381Z,100.00
2022-11-22T12:42:23.469Z,100.00
2022-11-22T12:44:54.415Z,100.00
2022-11-22T12:47:22.881Z,100.00
2022-11-22T12:49:56.927Z,100.00
2022-11-22T12:52:25.429Z,100.00
2022-11-22T12:54:52.436Z,100.00
2022-11-22T12:57:21.362Z,100.00
2022-11-22T13:00:12.777Z,100.00
2022-11-22T13:02:45.430Z,100.00
2022-11-22T13:05:17.317Z,100.00
2022-11-22T13:07:48.987Z,100.00
2022-11-22T13:10:48.894Z,100.00
2022-11-22T13:13:26.033Z,100.00
2022-11-22T13:15:53.363Z,100.00
2022-11-22T13:18:20.971Z,100.00
2022-11-22T13:20:53.052Z,100.00
2022-11-22T13:23:33.414Z,100.00
2022-11-22T13:26:19.057Z,100.00
2022-11-22T13:28:46.127Z,100.00
2022-11-22T13:31:14.804Z,100.00
2022-11-22T13:33:55.429Z,100.00
2022-11-22T13:36:25.528Z,100.00
2022-11-22T13:38:53.252Z,100.00
2022-11-22T13:41:27.930Z,100.00
2022-11-22T13:43:58.546Z,100.00
2022-11-22T13:46:44.462Z,100.00
2022-11-22T13:49:14.994Z,100.00
2022-11-22T13:51:55.528Z,100.00
2022-11-22T13:54:37.894Z,100.00
2022-11-22T13:57:05.816Z,100.00
2022-11-22T13:59:33.176Z,100.00
2022-11-22T14:02:01.283Z,100.00
2022-11-22T14:04:31.878Z,100.00
2022-11-22T14:07:11.947Z,99.96
2022-11-22T14:09:39.168Z,100.00
2022-11-22T14:12:10.246Z,100.00
2022-11-22T14:14:41.959Z,100.00
2022-11-22T14:17:27.759Z,100.00
2022-11-22T14:19:54.735Z,100.00
2022-11-22T14:22:33.995Z,100.00
2022-11-22T14:25:19.818Z,100.00
2022-11-22T14:27:51.927Z,100.00
2022-11-22T14:30:20.064Z,100.00
2022-11-22T14:32:51.704Z,100.00
2022-11-22T14:35:29.471Z,100.00
2022-11-22T14:38:10.055Z,100.00
2022-11-22T14:40:38.566Z,100.00
2022-11-22T14:43:11.931Z,100.00
2022-11-22T14:45:41.512Z,100.00
2022-11-22T14:48:13.915Z,100.00
2022-11-22T14:50:42.908Z,100.00
2022-11-22T14:53:16.837Z,100.00
2022-11-22T14:55:44.073Z,100.00
2022-11-22T14:58:12.471Z,100.00
2022-11-22T15:00:50.646Z,100.00
2022-11-22T15:03:36.127Z,100.00
2022-11-22T15:09:12.370Z,100.00
2022-11-22T15:09:15.567Z,100.00
2022-11-22T15:11:52.315Z,100.00
2022-11-22T15:14:31.364Z,100.00
2022-11-22T15:59:39.672Z,100.00
2022-11-22T16:02:12.764Z,100.00
2022-11-22T16:04:39.791Z,100.00
2022-11-22T16:07:07.142Z,100.00
2022-11-22T16:09:37.683Z,100.00
2022-11-22T16:12:05.890Z,100.00
2022-11-22T16:14:38.790Z,100.00
2022-11-22T16:17:21.235Z,100.00
2022-11-22T16:19:48.285Z,100.00
2022-11-22T16:22:28.294Z,100.00
2022-11-22T16:25:15.241Z,100.00
2022-11-22T16:27:48.643Z,100.00
2022-11-22T16:30:19.395Z,100.00
2022-11-22T16:32:53.741Z,100.00
2022-11-22T16:35:29.624Z,100.00
2022-11-22T16:37:57.362Z,100.00
2022-11-22T16:40:24.408Z,100.00
2022-11-22T16:42:51.867Z,100.00
2022-11-22T16:45:19.941Z,100.00
2022-11-22T16:47:54.625Z,100.00
2022-11-22T16:50:34.164Z,100.00
2022-11-22T16:53:02.808Z,100.00
2022-11-22T16:55:30.170Z,100.00
2022-11-22T16:57:57.732Z,100.00
2022-11-22T17:00:24.725Z,100.00
2022-11-22T17:02:52.041Z,100.00
2022-11-22T17:05:19.459Z,100.00
2022-11-22T17:07:46.567Z,100.00
2022-11-22T17:10:17.645Z,100.00
2022-11-22T17:12:44.879Z,100.00
2022-11-22T17:15:16.199Z,100.00
2022-11-22T17:17:43.673Z,100.00
2022-11-22T17:20:13.055Z,100.00
2022-11-22T17:22:43.066Z,100.00
2022-11-22T17:25:13.645Z,100.00
2022-11-22T17:27:41.104Z,100.00
2022-11-22T17:30:08.480Z,100.00
2022-11-22T17:32:37.216Z,100.00
2022-11-22T17:35:05.759Z,100.00
2022-11-22T17:37:33.325Z,100.00
2022-11-22T17:40:00.980Z,100.00
2022-11-22T17:42:28.149Z,100.00
2022-11-22T17:44:55.212Z,100.00
2022-11-22T17:47:22.327Z,100.00
2022-11-22T17:49:49.667Z,100.00
2022-11-22T17:52:16.686Z,100.00
2022-11-22T17:54:43.835Z,100.00
2022-11-22T17:57:11.520Z,100.00
2022-11-22T17:59:38.520Z,100.00
2022-11-22T18:02:05.681Z,100.00
2022-11-22T18:04:33.889Z,100.00
2022-11-22T18:07:01.192Z,100.00
2022-11-22T18:09:28.635Z,100.00
2022-11-22T18:11:56.151Z,100.00
2022-11-22T18:14:23.445Z,100.00
2022-11-22T18:16:50.492Z,100.00
2022-11-22T18:19:18.642Z,100.00
2022-11-22T18:21:45.994Z,100.00
2022-11-22T18:24:13.031Z,100.00
2022-11-22T18:26:42.876Z,100.00
2022-11-22T18:31:57.421Z,100.00
2022-11-22T18:34:24.601Z,100.00
2022-11-22T18:37:00.388Z,100.00
2022-11-22T18:39:30.473Z,100.00
2022-11-22T18:41:57.847Z,100.00
2022-11-22T18:44:24.961Z,100.00
2022-11-22T18:46:52.371Z,100.00
2022-11-22T18:49:19.393Z,100.00
2022-11-22T18:51:46.551Z,100.00
2022-11-22T18:54:13.621Z,100.00
2022-11-22T18:56:41.320Z,100.00
2022-11-22T18:59:09.893Z,100.00
2022-11-22T19:01:37.608Z,100.00
2022-11-22T19:04:04.837Z,100.00
2022-11-22T19:06:33.012Z,100.00
2022-11-22T19:09:00.789Z,100.00
2022-11-22T19:11:28.925Z,100.00
2022-11-22T19:13:56.017Z,100.00
2022-11-22T19:16:23.248Z,100.00
2022-11-22T19:18:50.393Z,100.00
2022-11-22T19:21:19.214Z,100.00
2022-11-22T19:23:46.879Z,100.00
2022-11-22T19:26:15.444Z,100.00
2022-11-22T19:28:42.629Z,100.00
2022-11-22T19:31:09.619Z,100.00
2022-11-22T19:33:36.761Z,100.00
2022-11-22T19:36:04.576Z,100.00
2022-11-22T19:38:31.698Z,100.00
2022-11-22T19:40:58.704Z,100.00
2022-11-22T19:43:25.999Z,100.00
2022-11-22T19:45:53.500Z,100.00
2022-11-22T19:48:20.733Z,100.00
2022-11-22T19:50:48.096Z,100.00
2022-11-22T19:53:15.128Z,100.00
2022-11-22T19:55:45.413Z,100.00
2022-11-22T19:58:13.272Z,100.00
2022-11-22T20:00:40.308Z,100.00
2022-11-22T20:03:07.373Z,100.00
2022-11-22T20:05:34.733Z,100.00
2022-11-22T20:08:01.763Z,100.00
2022-11-22T20:10:29.069Z,100.00
2022-11-22T20:12:58.151Z,100.00
2022-11-22T20:15:25.181Z,100.00
2022-11-22T20:17:52.388Z,100.00
2022-11-22T20:20:19.464Z,100.00
2022-11-22T20:22:47.813Z,100.00
2022-11-22T20:25:14.927Z,100.00
2022-11-22T20:27:42.668Z,100.00
2022-11-22T20:30:10.060Z,100.00
2022-11-22T20:32:40.037Z,100.00
2022-11-22T20:35:07.294Z,100.00
2022-11-22T20:37:35.477Z,100.00
2022-11-22T20:40:03.345Z,100.00
2022-11-22T20:42:35.093Z,100.00
2022-11-22T20:45:08.384Z,100.00
2022-11-22T20:47:36.371Z,100.00
2022-11-22T20:50:03.608Z,100.00
2022-11-22T20:52:30.735Z,100.00
2022-11-22T20:55:03.360Z,100.00
2022-11-22T20:57:32.040Z,100.00
2022-11-22T20:59:59.073Z,100.00
2022-11-22T21:02:26.168Z,100.00
2022-11-22T21:04:53.275Z,100.00
2022-11-22T21:07:20.786Z,100.00
2022-11-22T21:09:47.988Z,100.00
2022-11-22T21:12:15.001Z,100.00
2022-11-22T21:14:43.384Z,100.00
2022-11-22T21:17:39.362Z,100.00
2022-11-22T21:20:02.838Z,100.00
2022-11-22T21:22:32.022Z,100.00
2022-11-22T21:24:59.322Z,100.00
2022-11-22T21:27:26.354Z,100.00
2022-11-22T21:29:53.592Z,100.00
2022-11-22T21:32:21.458Z,100.00
2022-11-22T21:34:48.520Z,100.00
2022-11-22T21:37:17.288Z,100.00
2022-11-22T21:39:44.484Z,100.00
2022-11-22T21:42:11.484Z,100.00
2022-11-22T21:44:39.309Z,100.00
2022-11-22T21:47:06.333Z,100.00
2022-11-22T21:49:35.097Z,100.00
2022-11-22T21:52:03.166Z,99.75
2022-11-22T21:54:30.904Z,99.37
2022-11-22T21:57:02.972Z,99.90
2022-11-22T21:59:32.393Z,99.80
2022-11-22T22:02:01.772Z,100.00
2022-11-22T22:04:29.111Z,100.00
2022-11-22T22:06:56.291Z,99.74
2022-11-22T22:09:23.359Z,99.73
2022-11-22T22:11:50.860Z,99.17
2022-11-22T22:14:17.933Z,99.30
2022-11-22T22:16:45.038Z,99.11
2022-11-22T22:19:12.044Z,98.66
2022-11-22T22:21:39.263Z,99.19
2022-11-22T22:24:06.512Z,99.05
2022-11-22T22:26:34.075Z,98.85
2022-11-22T22:29:01.785Z,99.59
2022-11-22T22:31:29.151Z,99.46
2022-11-22T22:33:56.740Z,100.00
2022-11-22T22:36:24.531Z,99.71
2022-11-22T22:38:51.600Z,100.00
2022-11-22T22:41:18.708Z,99.79
2022-11-22T22:43:46.453Z,99.92
2022-11-22T22:46:14.380Z,99.91
2022-11-22T22:48:41.698Z,100.00
2022-11-22T22:51:13.537Z,100.00
2022-11-22T22:53:40.813Z,100.00
2022-11-22T22:56:08.630Z,100.00
2022-11-22T22:58:35.743Z,100.00
2022-11-22T23:01:23.748Z,100.00
2022-11-22T23:03:54.607Z,100.00
2022-11-22T23:06:22.231Z,100.00
2022-11-22T23:08:49.562Z,100.00
2022-11-22T23:11:18.229Z,100.00
2022-11-22T23:13:45.395Z,100.00
2022-11-22T23:16:13.503Z,100.00
2022-11-22T23:18:44.249Z,100.00
2022-11-22T23:21:13.567Z,100.00
2022-11-22T23:23:40.677Z,100.00
2022-11-22T23:26:08.463Z,100.00
2022-11-22T23:28:35.534Z,100.00
2022-11-22T23:31:05.777Z,100.00
2022-11-22T23:33:32.856Z,100.00
2022-11-22T23:36:06.564Z,100.00
2022-11-22T23:38:33.985Z,100.00
2022-11-22T23:41:01.174Z,100.00
2022-11-22T23:43:28.479Z,100.00
2022-11-22T23:45:55.695Z,100.00
2022-11-22T23:48:22.948Z,100.00
2022-11-22T23:50:50.685Z,100.00
2022-11-22T23:53:17.913Z,100.00
2022-11-22T23:55:46.122Z,100.00
2022-11-22T23:58:13.381Z,100.00
